sensor_id;sensor_type;location;lat;lon;timestamp;temperature;humidity
46676;DHT22;32412;51.478;5.694;2023-07-02T00:01:40;17.40;99.90
46676;DHT22;32412;51.478;5.694;2023-07-02T00:04:06;17.40;99.90
46676;DHT22;32412;51.478;5.694;2023-07-02T00:06:34;17.40;99.90
46676;DHT22;32412;51.478;5.694;2023-07-02T00:09:12;17.40;99.90
46676;DHT22;32412;51.478;5.694;2023-07-02T00:11:39;17.40;99.90
46676;DHT22;32412;51.478;5.694;2023-07-02T00:14:05;17.40;99.90
46676;DHT22;32412;51.478;5.694;2023-07-02T00:16:31;17.40;99.90
46676;DHT22;32412;51.478;5.694;2023-07-02T00:18:57;17.40;99.90
46676;DHT22;32412;51.478;5.694;2023-07-02T00:21:23;17.40;99.90
46676;DHT22;32412;51.478;5.694;2023-07-02T00:23:54;17.40;99.90
46676;DHT22;32412;51.478;5.694;2023-07-02T00:26:23;17.40;99.90
46676;DHT22;32412;51.478;5.694;2023-07-02T00:28:49;17.30;99.90
46676;DHT22;32412;51.478;5.694;2023-07-02T00:31:14;17.30;99.90
46676;DHT22;32412;51.478;5.694;2023-07-02T00:33:40;17.20;99.90
46676;DHT22;32412;51.478;5.694;2023-07-02T00:36:06;17.20;99.90
46676;DHT22;32412;51.478;5.694;2023-07-02T00:38:31;17.20;99.90
46676;DHT22;32412;51.478;5.694;2023-07-02T00:40:57;17.20;99.90
46676;DHT22;32412;51.478;5.694;2023-07-02T00:43:23;17.20;99.90
46676;DHT22;32412;51.478;5.694;2023-07-02T00:45:48;17.20;99.90
46676;DHT22;32412;51.478;5.694;2023-07-02T00:48:14;17.20;99.90
46676;DHT22;32412;51.478;5.694;2023-07-02T00:50:40;17.20;99.90
46676;DHT22;32412;51.478;5.694;2023-07-02T00:53:06;17.20;99.90
46676;DHT22;32412;51.478;5.694;2023-07-02T00:55:32;17.10;99.90
46676;DHT22;32412;51.478;5.694;2023-07-02T00:57:57;17.10;99.90
46676;DHT22;32412;51.478;5.694;2023-07-02T01:00:23;17.00;99.90
46676;DHT22;32412;51.478;5.694;2023-07-02T01:02:55;17.00;99.90
46676;DHT22;32412;51.478;5.694;2023-07-02T01:05:28;17.00;99.90
46676;DHT22;32412;51.478;5.694;2023-07-02T01:08:02;17.00;99.90
46676;DHT22;32412;51.478;5.694;2023-07-02T01:10:28;16.90;99.90
46676;DHT22;32412;51.478;5.694;2023-07-02T01:12:54;16.90;99.90
46676;DHT22;32412;51.478;5.694;2023-07-02T01:15:20;16.90;99.90
46676;DHT22;32412;51.478;5.694;2023-07-02T01:17:47;16.90;99.90
46676;DHT22;32412;51.478;5.694;2023-07-02T01:20:14;16.90;99.90
46676;DHT22;32412;51.478;5.694;2023-07-02T01:22:40;16.90;99.90
46676;DHT22;32412;51.478;5.694;2023-07-02T01:25:06;16.80;99.90
46676;DHT22;32412;51.478;5.694;2023-07-02T01:27:33;16.80;99.90
46676;DHT22;32412;51.478;5.694;2023-07-02T01:30:01;16.80;99.90
46676;DHT22;32412;51.478;5.694;2023-07-02T01:32:27;16.80;99.90
46676;DHT22;32412;51.478;5.694;2023-07-02T01:34:52;16.70;99.90
46676;DHT22;32412;51.478;5.694;2023-07-02T01:37:19;16.80;99.90
46676;DHT22;32412;51.478;5.694;2023-07-02T01:39:45;16.70;99.90
46676;DHT22;32412;51.478;5.694;2023-07-02T01:42:15;16.70;99.90
46676;DHT22;32412;51.478;5.694;2023-07-02T01:44:42;16.70;99.90
46676;DHT22;32412;51.478;5.694;2023-07-02T01:47:08;16.70;99.90
46676;DHT22;32412;51.478;5.694;2023-07-02T01:49:34;16.70;99.90
46676;DHT22;32412;51.478;5.694;2023-07-02T01:52:01;16.70;99.90
46676;DHT22;32412;51.478;5.694;2023-07-02T01:54:27;16.70;99.90
46676;DHT22;32412;51.478;5.694;2023-07-02T01:56:54;16.70;99.90
46676;DHT22;32412;51.478;5.694;2023-07-02T01:59:20;16.70;99.90
46676;DHT22;32412;51.478;5.694;2023-07-02T02:01:46;16.60;99.90
46676;DHT22;32412;51.478;5.694;2023-07-02T02:04:12;16.70;99.90
46676;DHT22;32412;51.478;5.694;2023-07-02T02:06:38;16.70;99.90
46676;DHT22;32412;51.478;5.694;2023-07-02T02:09:05;16.70;99.90
46676;DHT22;32412;51.478;5.694;2023-07-02T02:11:32;16.60;99.90
46676;DHT22;32412;51.478;5.694;2023-07-02T02:13:58;16.60;99.90
46676;DHT22;32412;51.478;5.694;2023-07-02T02:16:25;16.60;99.90
46676;DHT22;32412;51.478;5.694;2023-07-02T02:18:50;16.60;99.90
46676;DHT22;32412;51.478;5.694;2023-07-02T02:21:17;16.50;99.90
46676;DHT22;32412;51.478;5.694;2023-07-02T02:23:43;16.50;99.90
46676;DHT22;32412;51.478;5.694;2023-07-02T02:26:09;16.50;99.90
46676;DHT22;32412;51.478;5.694;2023-07-02T02:28:35;16.40;99.90
46676;DHT22;32412;51.478;5.694;2023-07-02T02:31:00;16.40;99.90
46676;DHT22;32412;51.478;5.694;2023-07-02T02:33:26;16.40;99.90
46676;DHT22;32412;51.478;5.694;2023-07-02T02:35:52;16.50;99.90
46676;DHT22;32412;51.478;5.694;2023-07-02T02:38:17;16.40;99.90
46676;DHT22;32412;51.478;5.694;2023-07-02T02:40:43;16.40;99.90
46676;DHT22;32412;51.478;5.694;2023-07-02T02:43:09;16.50;99.90
46676;DHT22;32412;51.478;5.694;2023-07-02T02:45:34;16.50;99.90
46676;DHT22;32412;51.478;5.694;2023-07-02T02:48:00;16.50;99.90
46676;DHT22;32412;51.478;5.694;2023-07-02T02:50:26;16.50;99.90
46676;DHT22;32412;51.478;5.694;2023-07-02T02:52:52;16.50;99.90
46676;DHT22;32412;51.478;5.694;2023-07-02T02:55:18;16.50;99.90
46676;DHT22;32412;51.478;5.694;2023-07-02T02:57:44;16.50;99.90
46676;DHT22;32412;51.478;5.694;2023-07-02T03:00:10;16.50;99.90
46676;DHT22;32412;51.478;5.694;2023-07-02T03:02:37;16.40;99.90
46676;DHT22;32412;51.478;5.694;2023-07-02T03:05:03;16.40;99.90
46676;DHT22;32412;51.478;5.694;2023-07-02T03:07:29;16.30;99.90
46676;DHT22;32412;51.478;5.694;2023-07-02T03:09:55;16.30;99.90
46676;DHT22;32412;51.478;5.694;2023-07-02T03:12:21;16.30;99.90
46676;DHT22;32412;51.478;5.694;2023-07-02T03:14:47;16.40;99.90
46676;DHT22;32412;51.478;5.694;2023-07-02T03:17:17;16.40;99.90
46676;DHT22;32412;51.478;5.694;2023-07-02T03:19:42;16.40;99.90
46676;DHT22;32412;51.478;5.694;2023-07-02T03:22:08;16.40;99.90
46676;DHT22;32412;51.478;5.694;2023-07-02T03:24:33;16.40;99.90
46676;DHT22;32412;51.478;5.694;2023-07-02T03:26:59;16.40;99.90
46676;DHT22;32412;51.478;5.694;2023-07-02T03:29:25;16.40;99.90
46676;DHT22;32412;51.478;5.694;2023-07-02T03:31:50;16.30;99.90
46676;DHT22;32412;51.478;5.694;2023-07-02T03:34:16;16.30;99.90
46676;DHT22;32412;51.478;5.694;2023-07-02T03:36:42;16.20;99.90
46676;DHT22;32412;51.478;5.694;2023-07-02T03:39:09;16.20;99.90
46676;DHT22;32412;51.478;5.694;2023-07-02T03:41:34;16.20;99.90
46676;DHT22;32412;51.478;5.694;2023-07-02T03:44:00;16.20;99.90
46676;DHT22;32412;51.478;5.694;2023-07-02T03:46:26;16.20;99.90
46676;DHT22;32412;51.478;5.694;2023-07-02T03:48:51;16.20;99.90
46676;DHT22;32412;51.478;5.694;2023-07-02T03:51:17;16.30;99.90
46676;DHT22;32412;51.478;5.694;2023-07-02T03:53:43;16.30;99.90
46676;DHT22;32412;51.478;5.694;2023-07-02T03:56:08;16.30;99.90
46676;DHT22;32412;51.478;5.694;2023-07-02T03:58:34;16.30;99.90
46676;DHT22;32412;51.478;5.694;2023-07-02T04:01:00;16.30;99.90
46676;DHT22;32412;51.478;5.694;2023-07-02T04:03:26;16.30;99.90
46676;DHT22;32412;51.478;5.694;2023-07-02T04:05:51;16.30;99.90
46676;DHT22;32412;51.478;5.694;2023-07-02T04:08:17;16.20;99.90
46676;DHT22;32412;51.478;5.694;2023-07-02T04:10:43;16.20;99.90
46676;DHT22;32412;51.478;5.694;2023-07-02T04:13:09;16.20;99.90
46676;DHT22;32412;51.478;5.694;2023-07-02T04:15:35;16.20;99.90
46676;DHT22;32412;51.478;5.694;2023-07-02T04:18:01;16.10;99.90
46676;DHT22;32412;51.478;5.694;2023-07-02T04:20:27;16.00;99.90
46676;DHT22;32412;51.478;5.694;2023-07-02T04:22:54;15.90;99.90
46676;DHT22;32412;51.478;5.694;2023-07-02T04:25:19;15.90;99.90
46676;DHT22;32412;51.478;5.694;2023-07-02T04:27:45;15.90;99.90
46676;DHT22;32412;51.478;5.694;2023-07-02T04:30:12;15.90;99.90
46676;DHT22;32412;51.478;5.694;2023-07-02T04:32:38;15.90;99.90
46676;DHT22;32412;51.478;5.694;2023-07-02T04:35:07;15.90;99.90
46676;DHT22;32412;51.478;5.694;2023-07-02T04:37:34;16.00;99.90
46676;DHT22;32412;51.478;5.694;2023-07-02T04:40:00;16.00;99.90
46676;DHT22;32412;51.478;5.694;2023-07-02T04:42:28;16.10;99.90
46676;DHT22;32412;51.478;5.694;2023-07-02T04:44:57;16.20;99.90
46676;DHT22;32412;51.478;5.694;2023-07-02T04:47:27;16.20;99.90
46676;DHT22;32412;51.478;5.694;2023-07-02T04:49:52;16.20;99.90
46676;DHT22;32412;51.478;5.694;2023-07-02T04:52:18;16.20;99.90
46676;DHT22;32412;51.478;5.694;2023-07-02T04:54:44;16.20;99.90
46676;DHT22;32412;51.478;5.694;2023-07-02T04:57:09;16.30;99.90
46676;DHT22;32412;51.478;5.694;2023-07-02T04:59:35;16.40;99.90
46676;DHT22;32412;51.478;5.694;2023-07-02T05:02:01;16.40;99.90
46676;DHT22;32412;51.478;5.694;2023-07-02T05:04:26;16.40;99.90
46676;DHT22;32412;51.478;5.694;2023-07-02T05:06:52;16.40;99.90
46676;DHT22;32412;51.478;5.694;2023-07-02T05:09:18;16.50;99.90
46676;DHT22;32412;51.478;5.694;2023-07-02T05:11:43;16.50;99.90
46676;DHT22;32412;51.478;5.694;2023-07-02T05:14:09;16.60;99.90
46676;DHT22;32412;51.478;5.694;2023-07-02T05:16:35;16.70;99.90
46676;DHT22;32412;51.478;5.694;2023-07-02T05:19:00;16.70;99.90
46676;DHT22;32412;51.478;5.694;2023-07-02T05:21:26;16.70;99.90
46676;DHT22;32412;51.478;5.694;2023-07-02T05:23:52;16.90;99.90
46676;DHT22;32412;51.478;5.694;2023-07-02T05:26:17;17.00;99.90
46676;DHT22;32412;51.478;5.694;2023-07-02T05:28:43;17.10;99.90
46676;DHT22;32412;51.478;5.694;2023-07-02T05:31:09;17.20;99.90
46676;DHT22;32412;51.478;5.694;2023-07-02T05:33:35;17.30;99.90
46676;DHT22;32412;51.478;5.694;2023-07-02T05:36:01;17.30;99.90
46676;DHT22;32412;51.478;5.694;2023-07-02T05:38:26;17.30;99.90
46676;DHT22;32412;51.478;5.694;2023-07-02T05:40:52;17.40;99.90
46676;DHT22;32412;51.478;5.694;2023-07-02T05:43:18;17.40;99.90
46676;DHT22;32412;51.478;5.694;2023-07-02T05:45:43;17.40;99.90
46676;DHT22;32412;51.478;5.694;2023-07-02T05:48:09;17.40;99.90
46676;DHT22;32412;51.478;5.694;2023-07-02T05:50:35;17.40;99.90
46676;DHT22;32412;51.478;5.694;2023-07-02T05:53:00;17.50;99.90
46676;DHT22;32412;51.478;5.694;2023-07-02T05:55:26;17.60;99.90
46676;DHT22;32412;51.478;5.694;2023-07-02T05:57:52;17.80;99.90
46676;DHT22;32412;51.478;5.694;2023-07-02T06:00:17;17.90;99.90
46676;DHT22;32412;51.478;5.694;2023-07-02T06:02:46;17.80;99.90
46676;DHT22;32412;51.478;5.694;2023-07-02T06:05:12;17.80;99.90
46676;DHT22;32412;51.478;5.694;2023-07-02T06:07:37;17.70;99.90
46676;DHT22;32412;51.478;5.694;2023-07-02T06:10:03;17.80;99.90
46676;DHT22;32412;51.478;5.694;2023-07-02T06:12:29;17.90;99.90
46676;DHT22;32412;51.478;5.694;2023-07-02T06:14:54;17.80;99.90
46676;DHT22;32412;51.478;5.694;2023-07-02T06:17:20;17.90;99.90
46676;DHT22;32412;51.478;5.694;2023-07-02T06:19:48;18.00;99.90
46676;DHT22;32412;51.478;5.694;2023-07-02T06:22:13;17.90;99.90
46676;DHT22;32412;51.478;5.694;2023-07-02T06:24:39;17.80;99.90
46676;DHT22;32412;51.478;5.694;2023-07-02T06:27:04;17.80;99.90
46676;DHT22;32412;51.478;5.694;2023-07-02T06:29:30;17.90;99.90
46676;DHT22;32412;51.478;5.694;2023-07-02T06:31:56;18.00;99.90
46676;DHT22;32412;51.478;5.694;2023-07-02T06:34:21;18.10;99.90
46676;DHT22;32412;51.478;5.694;2023-07-02T06:36:48;18.30;99.90
46676;DHT22;32412;51.478;5.694;2023-07-02T06:39:13;18.30;99.90
46676;DHT22;32412;51.478;5.694;2023-07-02T06:41:39;18.30;99.90
46676;DHT22;32412;51.478;5.694;2023-07-02T06:44:05;18.10;99.90
46676;DHT22;32412;51.478;5.694;2023-07-02T06:46:30;18.00;99.90
46676;DHT22;32412;51.478;5.694;2023-07-02T06:48:56;18.00;99.90
46676;DHT22;32412;51.478;5.694;2023-07-02T06:51:22;18.10;99.90
46676;DHT22;32412;51.478;5.694;2023-07-02T06:53:48;18.30;99.90
46676;DHT22;32412;51.478;5.694;2023-07-02T06:56:14;18.40;99.90
46676;DHT22;32412;51.478;5.694;2023-07-02T06:58:42;18.50;99.90
46676;DHT22;32412;51.478;5.694;2023-07-02T07:01:08;18.60;99.90
46676;DHT22;32412;51.478;5.694;2023-07-02T07:03:34;18.60;99.90
46676;DHT22;32412;51.478;5.694;2023-07-02T07:06:00;18.70;99.90
46676;DHT22;32412;51.478;5.694;2023-07-02T07:08:26;18.70;99.90
46676;DHT22;32412;51.478;5.694;2023-07-02T07:10:52;18.90;99.90
46676;DHT22;32412;51.478;5.694;2023-07-02T07:13:18;19.10;99.90
46676;DHT22;32412;51.478;5.694;2023-07-02T07:15:43;19.30;99.90
46676;DHT22;32412;51.478;5.694;2023-07-02T07:18:09;19.30;99.90
46676;DHT22;32412;51.478;5.694;2023-07-02T07:22:30;19.20;99.90
46676;DHT22;32412;51.478;5.694;2023-07-02T07:24:56;19.50;99.90
46676;DHT22;32412;51.478;5.694;2023-07-02T07:27:22;19.40;99.90
46676;DHT22;32412;51.478;5.694;2023-07-02T07:29:47;19.50;99.90
46676;DHT22;32412;51.478;5.694;2023-07-02T07:32:13;19.60;99.90
46676;DHT22;32412;51.478;5.694;2023-07-02T07:34:39;19.60;99.90
46676;DHT22;32412;51.478;5.694;2023-07-02T07:37:05;19.60;99.90
46676;DHT22;32412;51.478;5.694;2023-07-02T07:39:30;19.60;99.90
46676;DHT22;32412;51.478;5.694;2023-07-02T07:41:56;19.60;99.90
46676;DHT22;32412;51.478;5.694;2023-07-02T07:44:22;19.40;99.90
46676;DHT22;32412;51.478;5.694;2023-07-02T07:46:47;19.60;99.90
46676;DHT22;32412;51.478;5.694;2023-07-02T07:49:13;19.80;99.90
46676;DHT22;32412;51.478;5.694;2023-07-02T07:51:39;19.80;99.90
46676;DHT22;32412;51.478;5.694;2023-07-02T07:54:05;19.90;99.90
46676;DHT22;32412;51.478;5.694;2023-07-02T07:56:31;20.00;99.90
46676;DHT22;32412;51.478;5.694;2023-07-02T07:58:57;20.20;99.90
46676;DHT22;32412;51.478;5.694;2023-07-02T08:01:22;20.30;99.90
46676;DHT22;32412;51.478;5.694;2023-07-02T08:03:48;20.20;99.90
46676;DHT22;32412;51.478;5.694;2023-07-02T08:06:13;20.10;99.90
46676;DHT22;32412;51.478;5.694;2023-07-02T08:08:39;20.20;99.90
46676;DHT22;32412;51.478;5.694;2023-07-02T08:11:05;20.20;99.90
46676;DHT22;32412;51.478;5.694;2023-07-02T08:13:30;20.30;99.90
46676;DHT22;32412;51.478;5.694;2023-07-02T08:15:56;20.20;99.90
46676;DHT22;32412;51.478;5.694;2023-07-02T08:18:22;20.30;99.90
46676;DHT22;32412;51.478;5.694;2023-07-02T08:20:47;20.40;99.90
46676;DHT22;32412;51.478;5.694;2023-07-02T08:23:13;20.30;99.90
46676;DHT22;32412;51.478;5.694;2023-07-02T08:25:38;19.90;99.90
46676;DHT22;32412;51.478;5.694;2023-07-02T08:28:04;20.10;99.90
46676;DHT22;32412;51.478;5.694;2023-07-02T08:30:30;20.20;99.90
46676;DHT22;32412;51.478;5.694;2023-07-02T08:32:55;20.60;99.90
46676;DHT22;32412;51.478;5.694;2023-07-02T08:35:21;20.70;99.90
46676;DHT22;32412;51.478;5.694;2023-07-02T08:37:47;20.80;99.90
46676;DHT22;32412;51.478;5.694;2023-07-02T08:40:20;20.60;99.90
46676;DHT22;32412;51.478;5.694;2023-07-02T08:42:47;20.80;99.90
46676;DHT22;32412;51.478;5.694;2023-07-02T08:45:15;21.00;99.90
46676;DHT22;32412;51.478;5.694;2023-07-02T08:47:43;21.00;99.60
46676;DHT22;32412;51.478;5.694;2023-07-02T08:50:09;20.80;99.60
46676;DHT22;32412;51.478;5.694;2023-07-02T08:52:35;20.90;99.90
46676;DHT22;32412;51.478;5.694;2023-07-02T08:55:00;20.90;99.60
46676;DHT22;32412;51.478;5.694;2023-07-02T08:57:26;20.90;99.40
46676;DHT22;32412;51.478;5.694;2023-07-02T08:59:52;20.60;99.00
46676;DHT22;32412;51.478;5.694;2023-07-02T09:02:17;20.70;99.60
46676;DHT22;32412;51.478;5.694;2023-07-02T09:04:43;20.60;99.20
46676;DHT22;32412;51.478;5.694;2023-07-02T09:07:10;20.80;98.90
46676;DHT22;32412;51.478;5.694;2023-07-02T09:09:49;20.70;99.00
46676;DHT22;32412;51.478;5.694;2023-07-02T09:12:31;20.50;99.90
46676;DHT22;32412;51.478;5.694;2023-07-02T09:14:58;20.50;99.90
46676;DHT22;32412;51.478;5.694;2023-07-02T09:17:29;20.90;99.90
46676;DHT22;32412;51.478;5.694;2023-07-02T09:19:55;21.30;99.90
46676;DHT22;32412;51.478;5.694;2023-07-02T09:22:21;21.70;99.90
46676;DHT22;32412;51.478;5.694;2023-07-02T09:24:54;22.10;99.10
46676;DHT22;32412;51.478;5.694;2023-07-02T09:27:21;22.60;98.30
46676;DHT22;32412;51.478;5.694;2023-07-02T09:29:53;22.70;97.00
46676;DHT22;32412;51.478;5.694;2023-07-02T09:32:25;22.10;97.00
46676;DHT22;32412;51.478;5.694;2023-07-02T09:34:55;21.90;97.90
46676;DHT22;32412;51.478;5.694;2023-07-02T09:37:21;22.20;97.60
46676;DHT22;32412;51.478;5.694;2023-07-02T09:39:50;22.10;97.80
46676;DHT22;32412;51.478;5.694;2023-07-02T09:42:17;21.90;97.70
46676;DHT22;32412;51.478;5.694;2023-07-02T09:44:45;21.80;98.00
46676;DHT22;32412;51.478;5.694;2023-07-02T09:47:12;22.10;98.70
46676;DHT22;32412;51.478;5.694;2023-07-02T09:50:04;22.70;97.00
46676;DHT22;32412;51.478;5.694;2023-07-02T09:52:32;23.00;96.50
46676;DHT22;32412;51.478;5.694;2023-07-02T09:54:58;23.60;96.30
46676;DHT22;32412;51.478;5.694;2023-07-02T09:57:24;23.90;94.20
46676;DHT22;32412;51.478;5.694;2023-07-02T09:59:50;23.70;94.40
46676;DHT22;32412;51.478;5.694;2023-07-02T10:02:16;23.00;94.90
46676;DHT22;32412;51.478;5.694;2023-07-02T10:04:44;23.10;96.00
46676;DHT22;32412;51.478;5.694;2023-07-02T10:07:10;23.70;95.40
46676;DHT22;32412;51.478;5.694;2023-07-02T10:09:43;23.90;95.00
46676;DHT22;32412;51.478;5.694;2023-07-02T10:12:22;24.20;95.10
46676;DHT22;32412;51.478;5.694;2023-07-02T10:14:50;25.10;93.90
46676;DHT22;32412;51.478;5.694;2023-07-02T10:17:31;25.40;94.40
46676;DHT22;32412;51.478;5.694;2023-07-02T10:19:59;25.60;93.50
46676;DHT22;32412;51.478;5.694;2023-07-02T10:22:25;25.40;93.70
46676;DHT22;32412;51.478;5.694;2023-07-02T10:24:55;24.10;93.70
46676;DHT22;32412;51.478;5.694;2023-07-02T10:27:41;23.70;94.20
46676;DHT22;32412;51.478;5.694;2023-07-02T10:30:09;24.20;95.10
46676;DHT22;32412;51.478;5.694;2023-07-02T10:32:36;24.30;95.70
46676;DHT22;32412;51.478;5.694;2023-07-02T10:35:23;25.00;94.90
46676;DHT22;32412;51.478;5.694;2023-07-02T10:37:51;25.40;93.70
46676;DHT22;32412;51.478;5.694;2023-07-02T10:40:16;24.60;94.50
46676;DHT22;32412;51.478;5.694;2023-07-02T10:42:50;24.60;94.20
46676;DHT22;32412;51.478;5.694;2023-07-02T10:45:16;25.40;94.60
46676;DHT22;32412;51.478;5.694;2023-07-02T10:47:43;25.30;93.90
46676;DHT22;32412;51.478;5.694;2023-07-02T10:50:21;24.70;94.80
46676;DHT22;32412;51.478;5.694;2023-07-02T10:52:49;23.70;95.20
46676;DHT22;32412;51.478;5.694;2023-07-02T10:55:18;23.10;96.40
46676;DHT22;32412;51.478;5.694;2023-07-02T10:57:44;22.90;96.50
46676;DHT22;32412;51.478;5.694;2023-07-02T11:00:10;22.50;97.10
46676;DHT22;32412;51.478;5.694;2023-07-02T11:02:40;22.60;97.40
46676;DHT22;32412;51.478;5.694;2023-07-02T11:05:06;22.80;96.70
46676;DHT22;32412;51.478;5.694;2023-07-02T11:07:34;22.80;96.40
46676;DHT22;32412;51.478;5.694;2023-07-02T11:09:59;23.00;96.60
46676;DHT22;32412;51.478;5.694;2023-07-02T11:12:29;23.50;95.30
46676;DHT22;32412;51.478;5.694;2023-07-02T11:14:55;23.20;95.70
46676;DHT22;32412;51.478;5.694;2023-07-02T11:17:25;22.90;95.60
46676;DHT22;32412;51.478;5.694;2023-07-02T11:19:52;23.00;95.90
46676;DHT22;32412;51.478;5.694;2023-07-02T11:22:18;23.20;96.10
46676;DHT22;32412;51.478;5.694;2023-07-02T11:24:44;23.90;96.00
46676;DHT22;32412;51.478;5.694;2023-07-02T11:27:20;25.40;95.00
46676;DHT22;32412;51.478;5.694;2023-07-02T11:29:47;25.80;93.70
46676;DHT22;32412;51.478;5.694;2023-07-02T11:32:12;26.10;93.50
46676;DHT22;32412;51.478;5.694;2023-07-02T11:34:39;25.80;93.20
46676;DHT22;32412;51.478;5.694;2023-07-02T11:37:05;25.70;93.50
46676;DHT22;32412;51.478;5.694;2023-07-02T11:39:32;25.40;93.80
46676;DHT22;32412;51.478;5.694;2023-07-02T11:41:58;24.50;94.50
46676;DHT22;32412;51.478;5.694;2023-07-02T11:44:24;24.80;94.00
46676;DHT22;32412;51.478;5.694;2023-07-02T11:46:52;24.40;94.40
46676;DHT22;32412;51.478;5.694;2023-07-02T11:49:18;24.40;95.10
46676;DHT22;32412;51.478;5.694;2023-07-02T11:51:44;24.10;95.20
46676;DHT22;32412;51.478;5.694;2023-07-02T11:54:14;24.50;96.00
46676;DHT22;32412;51.478;5.694;2023-07-02T11:56:39;25.20;94.70
46676;DHT22;32412;51.478;5.694;2023-07-02T11:59:08;25.20;94.90
46676;DHT22;32412;51.478;5.694;2023-07-02T12:01:33;25.20;94.50
46676;DHT22;32412;51.478;5.694;2023-07-02T12:03:59;24.60;95.20
46676;DHT22;32412;51.478;5.694;2023-07-02T12:06:25;23.90;95.00
46676;DHT22;32412;51.478;5.694;2023-07-02T12:08:50;23.00;96.40
46676;DHT22;32412;51.478;5.694;2023-07-02T12:11:16;22.50;97.00
46676;DHT22;32412;51.478;5.694;2023-07-02T12:13:42;22.20;97.70
46676;DHT22;32412;51.478;5.694;2023-07-02T12:16:08;22.40;98.00
46676;DHT22;32412;51.478;5.694;2023-07-02T12:18:34;23.90;97.50
46676;DHT22;32412;51.478;5.694;2023-07-02T12:20:59;24.90;96.00
46676;DHT22;32412;51.478;5.694;2023-07-02T12:23:25;25.20;95.30
46676;DHT22;32412;51.478;5.694;2023-07-02T12:25:51;25.40;94.70
46676;DHT22;32412;51.478;5.694;2023-07-02T12:28:17;26.20;93.50
46676;DHT22;32412;51.478;5.694;2023-07-02T12:30:42;26.40;93.20
46676;DHT22;32412;51.478;5.694;2023-07-02T12:33:08;27.30;93.00
46676;DHT22;32412;51.478;5.694;2023-07-02T12:35:34;28.10;92.70
46676;DHT22;32412;51.478;5.694;2023-07-02T12:38:00;27.60;92.60
46676;DHT22;32412;51.478;5.694;2023-07-02T12:40:25;27.70;92.60
46676;DHT22;32412;51.478;5.694;2023-07-02T12:42:51;27.50;92.00
46676;DHT22;32412;51.478;5.694;2023-07-02T12:45:17;27.90;92.00
46676;DHT22;32412;51.478;5.694;2023-07-02T12:47:43;28.30;91.80
46676;DHT22;32412;51.478;5.694;2023-07-02T12:50:10;27.90;92.20
46676;DHT22;32412;51.478;5.694;2023-07-02T12:52:36;26.70;92.60
46676;DHT22;32412;51.478;5.694;2023-07-02T12:55:01;26.10;92.40
46676;DHT22;32412;51.478;5.694;2023-07-02T12:57:27;25.00;93.40
46676;DHT22;32412;51.478;5.694;2023-07-02T12:59:54;24.00;93.80
46676;DHT22;32412;51.478;5.694;2023-07-02T13:02:22;23.20;94.70
46676;DHT22;32412;51.478;5.694;2023-07-02T13:04:49;22.90;94.60
46676;DHT22;32412;51.478;5.694;2023-07-02T13:07:15;23.00;94.40
46676;DHT22;32412;51.478;5.694;2023-07-02T13:09:40;23.20;93.80
46676;DHT22;32412;51.478;5.694;2023-07-02T13:12:07;24.40;92.80
46676;DHT22;32412;51.478;5.694;2023-07-02T13:14:34;24.70;92.40
46676;DHT22;32412;51.478;5.694;2023-07-02T13:16:59;24.40;92.40
46676;DHT22;32412;51.478;5.694;2023-07-02T13:19:25;24.20;92.20
46676;DHT22;32412;51.478;5.694;2023-07-02T13:21:51;24.40;92.80
46676;DHT22;32412;51.478;5.694;2023-07-02T13:24:17;24.70;91.40
46676;DHT22;32412;51.478;5.694;2023-07-02T13:26:42;24.70;91.50
46676;DHT22;32412;51.478;5.694;2023-07-02T13:29:08;24.50;91.90
46676;DHT22;32412;51.478;5.694;2023-07-02T13:31:33;24.10;91.90
46676;DHT22;32412;51.478;5.694;2023-07-02T13:33:59;23.90;92.60
46676;DHT22;32412;51.478;5.694;2023-07-02T13:36:25;23.90;92.90
46676;DHT22;32412;51.478;5.694;2023-07-02T13:38:54;24.10;92.50
46676;DHT22;32412;51.478;5.694;2023-07-02T13:41:20;24.00;92.40
46676;DHT22;32412;51.478;5.694;2023-07-02T13:43:45;23.70;92.10
46676;DHT22;32412;51.478;5.694;2023-07-02T13:46:11;23.50;92.70
46676;DHT22;32412;51.478;5.694;2023-07-02T13:48:37;23.40;93.50
46676;DHT22;32412;51.478;5.694;2023-07-02T13:51:02;23.50;93.20
46676;DHT22;32412;51.478;5.694;2023-07-02T13:53:28;23.40;92.80
46676;DHT22;32412;51.478;5.694;2023-07-02T13:55:54;23.40;92.90
46676;DHT22;32412;51.478;5.694;2023-07-02T13:58:20;23.20;93.20
46676;DHT22;32412;51.478;5.694;2023-07-02T14:00:45;23.10;93.30
46676;DHT22;32412;51.478;5.694;2023-07-02T14:03:11;23.10;93.10
46676;DHT22;32412;51.478;5.694;2023-07-02T14:05:37;23.10;93.00
46676;DHT22;32412;51.478;5.694;2023-07-02T14:08:02;23.10;93.50
46676;DHT22;32412;51.478;5.694;2023-07-02T14:10:28;23.00;93.50
46676;DHT22;32412;51.478;5.694;2023-07-02T14:12:54;23.10;93.10
46676;DHT22;32412;51.478;5.694;2023-07-02T14:15:19;22.90;93.10
46676;DHT22;32412;51.478;5.694;2023-07-02T14:17:45;22.70;93.70
46676;DHT22;32412;51.478;5.694;2023-07-02T14:20:11;22.80;94.20
46676;DHT22;32412;51.478;5.694;2023-07-02T14:22:37;23.10;94.00
46676;DHT22;32412;51.478;5.694;2023-07-02T14:25:03;23.30;93.40
46676;DHT22;32412;51.478;5.694;2023-07-02T14:27:29;23.30;92.80
46676;DHT22;32412;51.478;5.694;2023-07-02T14:29:54;23.20;93.70
46676;DHT22;32412;51.478;5.694;2023-07-02T14:32:20;23.40;94.10
46676;DHT22;32412;51.478;5.694;2023-07-02T14:34:46;23.30;93.20
46676;DHT22;32412;51.478;5.694;2023-07-02T14:37:11;23.10;93.70
46676;DHT22;32412;51.478;5.694;2023-07-02T14:39:37;22.90;94.00
46676;DHT22;32412;51.478;5.694;2023-07-02T14:42:03;23.00;94.10
46676;DHT22;32412;51.478;5.694;2023-07-02T14:44:30;23.10;94.10
46676;DHT22;32412;51.478;5.694;2023-07-02T14:46:55;23.20;94.10
46676;DHT22;32412;51.478;5.694;2023-07-02T14:49:21;23.10;94.00
46676;DHT22;32412;51.478;5.694;2023-07-02T14:51:46;23.30;94.90
46676;DHT22;32412;51.478;5.694;2023-07-02T14:54:12;23.30;93.70
46676;DHT22;32412;51.478;5.694;2023-07-02T14:56:38;23.20;93.70
46676;DHT22;32412;51.478;5.694;2023-07-02T14:59:04;22.90;93.70
46676;DHT22;32412;51.478;5.694;2023-07-02T15:01:32;22.90;93.80
46676;DHT22;32412;51.478;5.694;2023-07-02T15:03:58;22.90;93.80
46676;DHT22;32412;51.478;5.694;2023-07-02T15:06:24;22.80;93.80
46676;DHT22;32412;51.478;5.694;2023-07-02T15:08:50;22.80;93.60
46676;DHT22;32412;51.478;5.694;2023-07-02T15:11:17;22.60;94.10
46676;DHT22;32412;51.478;5.694;2023-07-02T15:13:43;22.50;94.30
46676;DHT22;32412;51.478;5.694;2023-07-02T15:16:10;22.50;94.30
46676;DHT22;32412;51.478;5.694;2023-07-02T15:18:36;22.60;93.80
46676;DHT22;32412;51.478;5.694;2023-07-02T15:21:02;22.70;93.70
46676;DHT22;32412;51.478;5.694;2023-07-02T15:23:28;22.80;93.90
46676;DHT22;32412;51.478;5.694;2023-07-02T15:26:02;22.60;93.40
46676;DHT22;32412;51.478;5.694;2023-07-02T15:28:29;22.60;93.80